Terminal Aerodrome Forecast
Issued by NWS

Home | Current Version | Previous Version | Text Only | Print | Product List | Glossary On
Versions: 1 2 3 4 5 6 7 8 9 10 11 12 13 14 15 16 17 18 19 20 21 22 23 24
000
FTUS44 KLIX 162300
TAFHDC
TAF
KHDC 162340Z 1700/1724 00000KT P6SM VCTS SCT008 SCT013 BKN026CB
     FM170100 00000KT P6SM SCT090
     FM171100 VRB03KT P6SM SCT045
     FM171800 19004KT P6SM SCT035=

USA.gov is the U.S. government's official web portal to all federal, state and local government web resources and services.